Latest Weather Observations for Ernabella/Pukatja

IDD60801

Issued at 2:31 pm CST Sunday 31 July 2016 (issued every 30 minutes, with the page automatically refreshed every 10 minutes)

About weather observations | Map of weather stations | Latest weather observations for NT | Other Formats
Station Details ID: 016097 Name: PUKATJA Lat: -26.26 Lon: 132.18 Height: 703.2 m
Data from the previous 72 hours. | See also: Recent months at Ernabella/Pukatja
Date/Time
CST
Temp
°C
App
Temp
°C
Dew
Point
°C
Rel
Hum
%
Delta-T
°C
Wind Press
QNH
hPa
Press
MSL
hPa
Rain since
9am
mm
Dir  Spd
km/h
Gust
km/h
Spd
kts
Gust
kts
31/02:30pm 26.2 20.3 -5.4 12 13.8 WNW 17 24 9 13 1015.1 - 0.0
31/02:00pm 25.9 21.0 -3.6 14 13.3 NW 13 22 7 12 1015.3 - 0.0
31/01:30pm 25.3 19.7 -6.1 12 13.4 W 15 24 8 13 1015.9 - 0.0
31/01:00pm 25.8 21.3 -6.9 11 13.8 W 9 17 5 9 1016.6 - 0.0
31/12:30pm 24.8 20.5 -4.5 14 12.8 NW 9 17 5 9 1017.4 - 0.0
31/12:00pm 24.0 20.1 -4.2 15 12.3 W 7 13 4 7 1017.8 1017.3 0.0
31/11:30am 23.1 18.4 -4.9 15 12.0 WNW 11 17 6 9 1018.6 - 0.0
31/11:00am 22.5 18.4 -3.0 18 11.3 W 9 15 5 8 1019.0 - 0.0
31/10:30am 21.5 17.9 -2.4 20 10.6 W 7 11 4 6 1019.3 - 0.0
31/10:00am 19.6 16.3 -1.5 24 9.4 SW 6 9 3 5 1019.5 - 0.0
31/09:30am 19.4 17.3 -0.6 26 9.0 CALM 0 4 0 2 1019.5 - 0.0
31/09:00am 16.4 14.4 0.1 33 7.3 CALM 0 0 0 0 1019.4 1018.9 0.0
31/08:30am 12.3 9.1 -0.2 42 5.3 S 6 7 3 4 1019.4 - 0.0
31/08:00am 12.3 9.2 0.4 44 5.2 ESE 6 7 3 4 1019.1 - 0.0
31/07:30am 7.4 4.2 0.8 63 2.8 E 7 9 4 5 1018.9 - 0.0
31/07:00am 7.3 4.1 0.5 62 2.8 E 7 9 4 5 1018.7 - 0.0
31/06:30am 8.7 5.6 -0.1 54 3.6 E 6 9 3 5 1018.5 - 0.0
31/06:00am 11.9 8.7 -0.6 42 5.3 E 6 7 3 4 1018.2 1017.7 0.0
31/05:30am 11.6 8.8 -0.5 43 5.1 E 4 7 2 4 1018.1 - 0.0
31/05:00am 14.3 10.1 -0.9 35 6.5 N 11 17 6 9 1018.1 - 0.0
31/04:30am 11.7 8.0 0.2 45 4.9 NNW 9 13 5 7 1018.1 - 0.0
31/04:00am 12.5 9.8 0.6 44 5.2 ESE 4 7 2 4 1018.2 - 0.0
31/03:30am 12.6 9.0 0.4 43 5.3 NNE 9 11 5 6 1018.6 - 0.0
31/03:00am 12.2 10.3 0.6 45 5.0 CALM 0 4 0 2 1018.7 1018.2 0.0
31/02:30am 8.6 4.7 1.3 60 3.1 ENE 11 13 6 7 1018.8 - 0.0
31/02:00am 8.9 5.8 1.6 60 3.1 E 7 9 4 5 1019.1 - 0.0
31/01:30am 8.6 5.1 1.3 60 3.1 E 9 11 5 6 1019.4 - 0.0
31/01:00am 12.6 9.1 1.3 46 5.0 E 9 11 5 6 1019.7 - 0.0
31/12:30am 10.9 7.9 2.0 54 3.9 NE 7 9 4 5 1019.8 - 0.0
31/12:00am 10.8 9.1 1.9 54 3.9 CALM 0 0 0 0 1020.2 1019.7 0.0
 
Date/Time
CST
Temp
°C
App
Temp
°C
Dew
Point
°C
Rel
Hum
%
Delta-T
°C
Wind Press
QNH
hPa
Press
MSL
hPa
Rain since
9am
mm
Dir  Spd
km/h
Gust
km/h
Spd
kts
Gust
kts
30/11:30pm 10.1 8.3 1.5 55 3.7 CALM 0 0 0 0 1020.2 - 0.0
30/11:00pm 10.7 9.0 2.0 55 3.8 CALM 0 0 0 0 1020.1 - 0.0
30/10:30pm 12.1 10.4 1.7 49 4.6 CALM 0 0 0 0 1019.8 - 0.0
30/10:00pm 11.5 8.9 0.9 48 4.6 NE 4 7 2 4 1020.1 - 0.0
30/09:30pm 14.4 12.7 1.7 42 5.8 CALM 0 0 0 0 1020.2 - 0.0
30/09:00pm 14.2 11.6 1.2 41 5.8 ESE 4 6 2 3 1020.1 1019.6 0.0
30/08:30pm 14.2 11.1 1.2 41 5.8 ENE 7 9 4 5 1019.9 - 0.0
30/08:00pm 14.8 11.6 1.0 39 6.2 E 7 7 4 4 1019.6 - 0.0
30/07:30pm 15.8 12.6 0.8 36 6.8 NE 7 7 4 4 1019.4 - 0.0
30/07:00pm 17.3 14.1 0.9 33 7.5 E 7 9 4 5 1019.3 - 0.0
30/06:30pm 17.8 14.2 0.9 32 7.8 E 9 9 5 5 1019.1 - 0.0
30/06:00pm 20.5 17.0 1.4 28 9.0 N 9 11 5 6 1018.8 1018.3 0.0
30/05:30pm 22.1 17.4 0.6 24 10.1 N 15 20 8 11 1018.5 - 0.0
30/05:00pm 23.2 19.2 0.3 22 10.8 NE 11 17 6 9 1018.6 - 0.0
30/04:30pm 24.1 20.2 -5.0 14 12.6 S 7 13 4 7 1018.5 - 0.0
30/04:00pm 24.3 20.0 -4.9 14 12.6 W 9 17 5 9 1018.5 - 0.0
30/03:30pm 23.6 19.5 -2.8 17 11.8 SE 9 13 5 7 1018.6 - 0.0
30/03:00pm 23.6 19.7 -1.3 19 11.4 N 9 15 5 8 1018.7 1018.2 0.0
30/02:30pm 23.7 20.0 0.1 21 11.2 NE 9 15 5 8 1018.9 - 0.0
30/02:00pm 23.0 18.4 -1.1 20 11.1 ENE 13 20 7 11 1019.7 - 0.0
30/01:30pm 22.2 17.7 -0.5 22 10.5 W 13 19 7 10 1020.3 - 0.0
30/01:00pm 21.2 17.3 -1.3 22 10.2 W 9 17 5 9 1021.1 - 0.0
30/12:30pm 20.6 16.4 -0.7 24 9.7 WNW 11 15 6 8 1021.7 - 0.0
30/12:00pm 20.3 16.7 0.7 27 9.1 NE 9 15 5 8 1022.1 1021.7 0.0
30/11:30am 19.1 15.5 0.7 29 8.5 NNE 9 15 5 8 1022.1 - 0.0
30/11:00am 18.4 15.3 0.1 29 8.3 NNW 6 11 3 6 1022.7 - 0.0
30/10:30am 16.8 13.1 0.0 32 7.5 N 9 13 5 7 1023.1 - 0.0
30/10:00am 15.7 11.6 -0.5 33 7.1 N 11 17 6 9 1023.2 - 0.0
30/09:30am 14.9 12.3 0.7 38 6.3 E 4 7 2 4 1023.3 - 0.0
30/09:00am 12.9 9.3 0.6 43 5.4 ENE 9 11 5 6 1023.1 1022.6 0.0
30/08:30am 11.8 8.8 0.6 46 4.9 N 6 9 3 5 1023.2 - 0.0
30/08:00am 9.8 6.7 0.4 52 4.0 ENE 6 9 3 5 1022.9 - 0.0
30/07:30am 7.4 4.1 -0.1 59 3.1 ENE 7 9 4 5 1022.8 - 0.0
30/07:00am 7.0 5.0 -0.2 60 2.9 CALM 0 0 0 0 1022.6 - 0.0
30/06:30am 7.4 5.4 -0.1 59 3.1 CALM 0 6 0 3 1022.3 - 0.0
30/06:00am 8.8 6.4 -0.2 53 3.7 ENE 2 6 1 3 1022.1 1021.7 0.0
30/05:30am 8.2 6.2 0.0 56 3.4 CALM 0 4 0 2 1022.0 - 0.0
30/05:00am 6.2 3.3 -1.0 60 2.8 ESE 4 6 2 3 1021.9 - 0.0
30/04:30am 8.7 5.9 -0.3 53 3.7 E 4 7 2 4 1021.9 - 0.0
30/04:00am 5.9 2.7 -0.6 63 2.6 ESE 6 7 3 4 1022.1 - 0.0
30/03:30am 5.3 1.9 -0.7 65 2.4 E 7 11 4 6 1022.1 - 0.0
30/03:00am 6.6 4.6 -0.4 61 2.8 CALM 0 0 0 0 1022.2 1021.8 0.0
30/02:30am 6.5 4.4 -0.7 60 2.9 CALM 0 0 0 0 1022.4 - 0.0
30/02:00am 6.8 3.5 -0.9 58 3.1 E 6 7 3 4 1022.5 - 0.0
30/01:30am 7.3 3.9 -0.4 58 3.1 E 7 9 4 5 1022.7 - 0.0
30/01:00am 7.1 3.8 -0.1 60 2.9 E 7 9 4 5 1023.1 - 0.0
30/12:30am 7.1 4.0 -0.1 60 2.9 E 6 7 3 4 1023.4 - 0.0
30/12:00am 8.8 6.7 -0.5 52 3.8 CALM 0 0 0 0 1023.5 1023.1 0.0
 
Date/Time
CST
Temp
°C
App
Temp
°C
Dew
Point
°C
Rel
Hum
%
Delta-T
°C
Wind Press
QNH
hPa
Press
MSL
hPa
Rain since
9am
mm
Dir  Spd
km/h
Gust
km/h
Spd
kts
Gust
kts
29/11:30pm 11.2 9.2 -0.3 45 4.9 CALM 0 0 0 0 1023.7 - 0.0
29/11:00pm 10.2 7.0 -0.3 48 4.4 E 6 7 3 4 1023.8 - 0.0
29/10:30pm 7.4 4.0 -0.5 57 3.2 ENE 7 9 4 5 1023.9 - 0.0
29/10:00pm 8.6 4.8 -0.7 52 3.8 E 9 11 5 6 1023.9 - 0.0
29/09:30pm 8.4 5.9 -0.9 52 3.8 ENE 2 13 1 7 1023.6 - 0.0
29/09:00pm 9.2 7.1 -0.9 49 4.1 CALM 0 0 0 0 1023.4 1023.0 0.0
29/08:30pm 12.2 9.7 -1.0 40 5.5 ENE 2 6 1 3 1023.2 - 0.0
29/08:00pm 12.4 8.9 -1.5 38 5.8 ENE 7 9 4 5 1022.8 - 0.0
29/07:30pm 12.7 9.4 -1.6 37 5.9 E 6 7 3 4 1022.6 - 0.0
29/07:00pm 13.1 9.7 -2.0 35 6.2 N 6 7 3 4 1022.3 - 0.0
29/06:30pm 15.0 11.5 -1.5 32 7.0 N 7 7 4 4 1022.3 - 0.0
29/06:00pm 17.7 14.2 -1.0 28 8.2 N 7 9 4 5 1022.2 1021.8 0.0
29/05:30pm 19.3 15.0 -1.7 24 9.3 N 11 15 6 8 1022.3 - 0.0
29/05:00pm 19.9 15.9 -2.4 22 9.8 N 9 13 5 7 1022.2 - 0.0
29/04:30pm 20.1 15.7 -2.3 22 9.8 N 11 19 6 10 1022.1 - 0.0
29/04:00pm 20.1 15.6 -2.9 21 10.0 NNW 11 17 6 9 1022.0 - 0.0
29/03:30pm 20.1 15.4 -4.9 18 10.4 N 11 17 6 9 1022.1 - 0.0
29/03:00pm 20.2 15.6 -4.1 19 10.3 N 11 19 6 10 1022.1 1021.7 0.0
29/02:30pm 19.8 15.0 -5.9 17 10.5 N 11 19 6 10 1022.4 - 0.0
29/02:00pm 20.4 15.8 -4.0 19 10.4 N 11 19 6 10 1022.7 - 0.0
29/01:30pm 19.3 14.8 -3.5 21 9.7 N 11 19 6 10 1023.1 - 0.0
29/01:00pm 18.6 14.2 -2.3 24 9.1 N 11 17 6 9 1023.9 - 0.0
29/12:30pm 17.9 13.9 0.6 31 7.9 N 11 17 6 9 1024.6 - 0.0
29/12:00pm 16.6 12.5 -0.1 32 7.4 N 11 17 6 9 1025.0 1024.6 0.0
29/11:30am 16.1 11.8 0.7 35 6.9 N 13 20 7 11 1025.7 - 0.0
29/11:00am 15.5 11.6 0.9 37 6.6 N 11 15 6 8 1026.2 - 0.0
29/10:30am 13.7 9.7 0.4 40 5.8 N 11 17 6 9 1026.5 - 0.0
29/10:00am 13.6 9.3 0.9 42 5.6 NNE 13 17 7 9 1026.5 - 0.0
29/09:30am 12.2 8.3 0.9 46 4.9 NNE 11 17 6 9 1026.2 - 0.0
29/09:00am 10.5 8.0 1.6 54 3.9 N 4 9 2 5 1026.2 1025.8 0.0
29/08:30am 9.9 6.8 1.5 56 3.6 ENE 7 17 4 9 1025.8 - 0.0
29/08:00am 6.2 4.4 1.1 70 2.1 CALM 0 0 0 0 1025.8 - 0.0
29/07:30am 5.4 2.8 1.0 73 1.8 E 4 7 2 4 1025.7 - 0.0
29/07:00am 6.8 3.7 1.3 68 2.3 NE 7 9 4 5 1025.3 - 0.0
29/06:30am 6.0 3.1 1.2 71 2.0 ENE 6 9 3 5 1025.2 - 0.0
29/06:00am 5.4 3.6 1.0 73 1.8 CALM 0 0 0 0 1025.2 1024.8 0.0
29/05:30am 5.0 1.7 0.4 72 1.9 E 7 9 4 5 1025.1 - 0.0
29/05:00am 3.5 0.4 -0.1 77 1.4 E 6 7 3 4 1025.2 - 0.0
29/04:30am 3.5 0.8 0.2 79 1.3 E 4 7 2 4 1025.1 - 0.0
29/04:00am 4.6 1.4 0.9 77 1.5 E 7 9 4 5 1025.2 - 0.0
29/03:30am 5.1 1.1 0.5 72 1.9 E 11 13 6 7 1025.2 - 0.0
29/03:00am 3.9 0.1 -0.5 73 1.7 ENE 9 11 5 6 1025.7 1025.4 0.0
29/02:30am 3.3 -0.5 -0.5 76 1.5 NE 9 9 5 5 1026.0 - 0.0
29/02:00am 3.3 -0.1 -0.7 75 1.5 NE 7 9 4 5 1026.4 - 0.0
29/01:30am 4.2 0.5 -0.2 73 1.7 ENE 9 11 5 6 1026.3 - 0.0
29/01:00am 3.9 0.4 -1.3 69 2.0 ESE 7 9 4 5 1026.6 - 0.0
29/12:30am 8.8 5.3 1.2 59 3.2 ESE 9 11 5 6 1026.6 - 0.0
29/12:00am 7.9 4.3 0.9 61 2.9 ESE 9 11 5 6 1026.8 1026.4 0.0
 
Date/Time
CST
Temp
°C
App
Temp
°C
Dew
Point
°C
Rel
Hum
%
Delta-T
°C
Wind Press
QNH
hPa
Press
MSL
hPa
Rain since
9am
mm
Dir  Spd
km/h
Gust
km/h
Spd
kts
Gust
kts
28/11:30pm 8.6 5.5 1.5 61 3.0 E 7 9 4 5 1026.9 - 0.0
28/11:00pm 5.0 0.9 -0.2 69 2.1 NNE 11 13 6 7 1026.9 - 0.0
28/10:30pm 4.7 1.0 -0.3 70 2.0 ENE 9 9 5 5 1027.3 - 0.0
28/10:00pm 7.8 4.7 1.4 64 2.7 E 7 9 4 5 1027.5 - 0.0
28/09:30pm 6.5 3.2 0.2 64 2.6 E 7 7 4 4 1027.3 - 0.0
28/09:00pm 8.6 5.0 0.8 58 3.3 ENE 9 9 5 5 1027.3 1027.0 0.0
28/08:30pm 8.5 4.9 0.5 57 3.3 ENE 9 11 5 6 1027.0 - 0.0
28/08:00pm 9.9 6.3 0.8 53 3.9 E 9 9 5 5 1026.7 - 0.0
28/07:30pm 10.3 6.7 0.3 50 4.2 ENE 9 11 5 6 1026.3 - 0.0
28/07:00pm 10.9 6.8 -0.2 46 4.7 E 11 13 6 7 1026.2 - 0.0
28/06:30pm 12.2 8.5 -0.3 42 5.3 ENE 9 11 5 6 1026.2 - 0.0
28/06:00pm 15.3 11.2 -0.4 34 6.8 ENE 11 13 6 7 1026.0 1025.7 0.0
28/05:30pm 16.8 12.2 -0.9 30 7.8 ENE 13 17 7 9 1025.8 - 0.0
28/05:00pm 17.0 12.4 -0.7 30 7.8 NE 13 19 7 10 1025.7 - 0.0
28/04:30pm 17.5 13.0 -0.2 30 7.9 ENE 13 22 7 12 1025.6 - 0.0
28/04:00pm 17.9 13.0 -0.4 29 8.2 E 15 20 8 11 1025.9 - 0.0
28/03:30pm 17.5 12.9 -0.7 29 8.1 ENE 13 20 7 11 1026.2 - 0.0
28/03:00pm 17.5 13.1 0.2 31 7.8 NE 13 17 7 9 1026.6 1026.2 0.0

Other Formats:

Comma delimited format used in spreadsheet applications
http://www.bom.gov.au/fwo/IDD60801/IDD60801.94474.axf

JavaScript Object Notation format (JSON) in row-major order
http://www.bom.gov.au/fwo/IDD60801/IDD60801.94474.json